Huntleigh, Missouri
Current Conditions -  °F | °C
As of 11:51 AM on Sunday 21 Dec 2014 (Local Time) from KSTL Reporting Station
Overcast Overcast  
Wind Chill: 36°   Ceiling: 3200
Heat Index: 43°   Visibility: 10mi
Dew Point: 32°   Wind: 15mph
Humidity: 65%   Direction: 140°SE
Pressure: 30.14"   Gusts: NA
Location:  38.6172°N, 90.4443°W
Report Text: KSTL 211751Z 14013KT 10SM OVC032 06/00 A3014 RMK AO2 SLP211 T00610000 10061 20050 58023
Loading
Personal Weather Stations






























Interactive Weather Map New forecast layout! Learn more

10-Day Weather Forecast

Advertisements
Track Severe Weather on mobile